Time;durP1;ratioP1;P1;durP2;ratioP2;P2;SDS_P1;SDS_P2;PMS_P1;PMS_P2;Temp;Humidity;BMP_temperature;BMP_pressure;BME280_temperature;BME280_humidity;BME280_pressure;Samples;Min_cycle;Max_cycle;Signal;HPM_P1;HPM_P2
2022/06/27 00:00:27;;;;;;;0.40;0.40;;;23.00;99.90;;;;;;5072422;28;20208;-67
2022/06/27 00:03:15;;;;;;;0.40;0.40;;;23.00;99.90;;;;;;5070736;28;20553;-68
2022/06/27 00:06:04;;;;;;;0.40;0.40;;;22.90;99.90;;;;;;5072522;28;20314;-68
2022/06/27 00:08:52;;;;;;;0.40;0.40;;;22.90;99.90;;;;;;5070958;28;20270;-68
2022/06/27 00:11:40;;;;;;;0.40;0.40;;;22.80;99.90;;;;;;5072599;28;20592;-68
2022/06/27 00:14:28;;;;;;;0.40;0.40;;;22.80;99.90;;;;;;5072993;28;20201;-68
2022/06/27 00:17:18;;;;;;;0.40;0.40;;;22.80;99.90;;;;;;5072108;28;20200;-68
2022/06/27 00:20:07;;;;;;;0.40;0.40;;;22.70;99.90;;;;;;5072411;28;20276;-68
2022/06/27 00:22:55;;;;;;;0.40;0.40;;;22.70;99.90;;;;;;5073097;28;20213;-68
2022/06/27 00:25:43;;;;;;;0.40;0.40;;;22.60;99.90;;;;;;5072505;28;20204;-68
2022/06/27 00:28:32;;;;;;;0.40;0.40;;;22.60;99.90;;;;;;5072744;28;20739;-68
2022/06/27 00:31:20;;;;;;;0.40;0.40;;;22.50;99.90;;;;;;5071570;28;20200;-68
2022/06/27 00:34:09;;;;;;;0.40;0.40;;;22.50;99.90;;;;;;5072627;28;20275;-68
2022/06/27 00:36:57;;;;;;;0.40;0.40;;;22.50;99.90;;;;;;5071895;28;20250;-69
2022/06/27 00:39:45;;;;;;;0.40;0.40;;;22.50;99.90;;;;;;5071244;28;20200;-68
2022/06/27 00:42:34;;;;;;;0.40;0.40;;;22.40;99.90;;;;;;5072341;28;20354;-68
2022/06/27 00:45:23;;;;;;;0.40;0.40;;;22.40;99.90;;;;;;5072072;28;20372;-68
2022/06/27 00:48:11;;;;;;;0.40;0.40;;;22.40;99.90;;;;;;5071340;28;20220;-68
2022/06/27 00:51:00;;;;;;;0.40;0.40;;;22.30;99.90;;;;;;5071575;28;20204;-68
2022/06/27 00:53:48;;;;;;;0.40;0.40;;;22.40;99.90;;;;;;5071605;28;20311;-68
2022/06/27 00:56:37;;;;;;;0.50;0.50;;;22.30;99.90;;;;;;5071672;28;20614;-68
2022/06/27 00:59:25;;;;;;;0.50;0.50;;;22.20;99.90;;;;;;5070004;28;20221;-69
2022/06/27 01:02:13;;;;;;;0.40;0.40;;;22.20;99.90;;;;;;5070841;28;20708;-68
2022/06/27 01:05:02;;;;;;;0.40;0.40;;;22.20;99.90;;;;;;5070796;28;20629;-69
2022/06/27 01:07:51;;;;;;;0.45;0.45;;;22.10;99.90;;;;;;5071209;28;20280;-67
2022/06/27 01:10:41;;;;;;;0.40;0.40;;;22.00;99.90;;;;;;5071058;28;20197;-69
2022/06/27 01:13:31;;;;;;;0.40;0.40;;;22.10;99.90;;;;;;5070736;28;20228;-68
2022/06/27 01:16:19;;;;;;;0.40;0.40;;;22.00;99.90;;;;;;5071477;28;20280;-69
2022/06/27 01:19:10;;;;;;;0.40;0.40;;;22.00;99.90;;;;;;5070995;28;20192;-68
2022/06/27 01:21:58;;;;;;;0.40;0.40;;;22.00;99.90;;;;;;5071089;28;20220;-67
2022/06/27 01:24:48;;;;;;;0.40;0.40;;;22.10;99.90;;;;;;5071621;28;20274;-68
2022/06/27 01:27:36;;;;;;;0.40;0.40;;;21.90;99.90;;;;;;5070424;28;20201;-69
2022/06/27 01:30:24;;;;;;;0.40;0.40;;;21.90;99.90;;;;;;5071059;28;20228;-70
2022/06/27 01:33:12;;;;;;;0.40;0.40;;;21.90;99.90;;;;;;5069901;28;20263;-68
2022/06/27 01:39:02;;;;;;;0.40;0.40;;;21.90;99.90;;;;;;5070536;28;20546;-68
2022/06/27 01:41:54;;;;;;;0.40;0.40;;;22.00;99.90;;;;;;5070675;28;20623;-70
2022/06/27 01:44:42;;;;;;;0.40;0.40;;;21.80;99.90;;;;;;5071673;28;20626;-69
2022/06/27 01:47:31;;;;;;;0.50;0.50;;;21.80;99.90;;;;;;5089734;28;20261;-69
2022/06/27 01:50:21;;;;;;;0.40;0.40;;;21.80;99.90;;;;;;5083167;28;20216;-67
2022/06/27 01:53:09;;;;;;;0.40;0.40;;;21.80;99.90;;;;;;5071151;28;20256;-68
2022/06/27 01:55:58;;;;;;;0.40;0.40;;;21.70;99.90;;;;;;5071713;28;20280;-69
2022/06/27 01:58:47;;;;;;;0.40;0.40;;;21.70;99.90;;;;;;5070416;28;20204;-69
2022/06/27 02:01:36;;;;;;;0.40;0.40;;;21.70;99.90;;;;;;5070548;28;20665;-68
2022/06/27 02:04:24;;;;;;;0.40;0.40;;;21.60;99.90;;;;;;5070033;28;20673;-69
2022/06/27 02:07:12;;;;;;;0.40;0.40;;;21.60;99.90;;;;;;5073340;28;20205;-68
2022/06/27 02:10:00;;;;;;;0.50;0.50;;;21.60;99.90;;;;;;5073230;28;20220;-69
2022/06/27 02:12:49;;;;;;;0.40;0.40;;;21.50;99.90;;;;;;5074596;28;20282;-69
2022/06/27 02:16:02;;;;;;;0.50;0.50;;;21.50;99.90;;;;;;5074079;28;20254;-69
2022/06/27 02:18:51;;;;;;;0.40;0.40;;;21.50;99.90;;;;;;5073229;28;20200;-69
2022/06/27 02:21:40;;;;;;;0.50;0.50;;;21.40;99.90;;;;;;5073585;28;20201;-68
2022/06/27 02:24:28;;;;;;;0.40;0.40;;;21.40;99.90;;;;;;5073375;28;20284;-69
2022/06/27 02:27:17;;;;;;;0.40;0.40;;;21.40;99.90;;;;;;5073931;28;20279;-69
2022/06/27 02:30:06;;;;;;;0.40;0.40;;;21.40;99.90;;;;;;5073890;28;20275;-68
2022/06/27 02:32:56;;;;;;;0.40;0.40;;;21.40;99.90;;;;;;5072495;28;20728;-70
2022/06/27 02:35:45;;;;;;;0.40;0.40;;;21.40;99.90;;;;;;5073177;28;20213;-69
2022/06/27 02:38:33;;;;;;;0.50;0.50;;;21.40;99.90;;;;;;5074819;28;20254;-69
2022/06/27 02:41:23;;;;;;;0.40;0.40;;;21.30;99.90;;;;;;5072878;28;20197;-69
2022/06/27 02:44:13;;;;;;;0.40;0.40;;;21.30;99.90;;;;;;5074274;28;20691;-69
2022/06/27 02:47:02;;;;;;;0.40;0.40;;;21.40;99.90;;;;;;5073556;28;20239;-69
2022/06/27 02:49:52;;;;;;;0.40;0.40;;;21.30;99.90;;;;;;5073144;28;20212;-69
2022/06/27 02:52:47;;;;;;;0.50;0.50;;;21.30;99.90;;;;;;5073390;28;20235;-69
2022/06/27 02:55:39;;;;;;;0.40;0.40;;;21.30;99.90;;;;;;5074016;28;20723;-68
2022/06/27 02:58:36;;;;;;;0.47;0.47;;;21.30;99.90;;;;;;5073468;28;20212;-69
2022/06/27 03:01:27;;;;;;;0.40;0.40;;;21.30;99.90;;;;;;5072717;28;20204;-70
2022/06/27 03:04:15;;;;;;;0.40;0.40;;;21.30;99.90;;;;;;5073242;28;20266;-69
2022/06/27 03:07:05;;;;;;;0.40;0.40;;;21.30;99.90;;;;;;5073506;28;20204;-68
2022/06/27 03:09:53;;;;;;;0.40;0.40;;;21.30;99.90;;;;;;5072155;28;20236;-71
2022/06/27 03:12:42;;;;;;;0.50;0.50;;;21.30;99.90;;;;;;5073003;28;20227;-71
2022/06/27 03:15:30;;;;;;;0.40;0.40;;;21.30;99.90;;;;;;5072513;28;20625;-69
2022/06/27 03:18:18;;;;;;;0.50;0.50;;;21.40;99.90;;;;;;5072214;28;20197;-69
2022/06/27 03:21:06;;;;;;;0.40;0.40;;;21.40;99.90;;;;;;5072025;28;20673;-67
2022/06/27 03:23:55;;;;;;;0.40;0.40;;;21.40;99.90;;;;;;5072274;28;20204;-70
2022/06/27 03:26:44;;;;;;;0.40;0.40;;;21.40;99.90;;;;;;5072008;28;20681;-70
2022/06/27 03:29:32;;;;;;;0.40;0.40;;;21.40;99.90;;;;;;5073139;28;20326;-69
2022/06/27 03:32:20;;;;;;;0.40;0.40;;;21.40;99.90;;;;;;5072941;28;20216;-69
2022/06/27 03:35:08;;;;;;;0.40;0.40;;;21.40;99.90;;;;;;5073165;28;20228;-67
2022/06/27 03:37:57;;;;;;;0.40;0.40;;;21.50;99.90;;;;;;5072114;28;20603;-69
2022/06/27 03:40:46;;;;;;;0.40;0.40;;;21.50;99.90;;;;;;5074200;28;20278;-68
2022/06/27 03:43:34;;;;;;;0.40;0.40;;;21.50;99.90;;;;;;5073243;28;20278;-68
2022/06/27 03:46:22;;;;;;;0.40;0.40;;;21.50;99.90;;;;;;5071926;28;20284;-69
2022/06/27 03:52:16;;;;;;;0.40;0.40;;;21.50;99.90;;;;;;5071971;28;20602;-70
2022/06/27 03:55:07;;;;;;;0.40;0.40;;;21.60;99.90;;;;;;5072049;28;20192;-70
2022/06/27 03:57:58;;;;;;;0.40;0.40;;;21.60;99.90;;;;;;5071886;28;20598;-68
2022/06/27 04:00:46;;;;;;;0.40;0.40;;;21.60;99.90;;;;;;5071367;28;20192;-68
2022/06/27 04:03:35;;;;;;;0.45;0.45;;;21.60;99.90;;;;;;5070607;28;20252;-70
2022/06/27 04:06:23;;;;;;;0.40;0.40;;;21.70;99.90;;;;;;5071700;28;20203;-69
2022/06/27 04:09:11;;;;;;;0.40;0.40;;;21.70;99.90;;;;;;5071158;28;20254;-69
2022/06/27 04:12:00;;;;;;;0.40;0.40;;;21.70;99.90;;;;;;5071902;28;20294;-69
2022/06/27 04:14:49;;;;;;;0.40;0.40;;;21.80;99.90;;;;;;5071236;28;20200;-68
2022/06/27 04:17:38;;;;;;;0.40;0.40;;;21.80;99.90;;;;;;5071128;28;20250;-68
2022/06/27 04:20:27;;;;;;;0.40;0.40;;;21.80;99.90;;;;;;5071467;28;20197;-68
2022/06/27 04:23:15;;;;;;;0.40;0.40;;;21.90;99.90;;;;;;5071163;28;20775;-69
2022/06/27 04:26:05;;;;;;;0.40;0.40;;;21.90;99.90;;;;;;5071683;28;20725;-68
2022/06/27 04:28:53;;;;;;;0.50;0.50;;;21.90;99.90;;;;;;5070243;28;20245;-69
2022/06/27 04:31:42;;;;;;;0.40;0.40;;;22.00;99.90;;;;;;5071491;28;20274;-69
2022/06/27 04:34:30;;;;;;;0.40;0.40;;;22.00;99.90;;;;;;5071199;28;20265;-67
2022/06/27 04:37:19;;;;;;;0.40;0.40;;;22.00;99.90;;;;;;5071703;28;20580;-68
2022/06/27 04:40:08;;;;;;;0.40;0.40;;;22.00;99.90;;;;;;5071174;28;20231;-67
2022/06/27 04:42:57;;;;;;;0.40;0.40;;;22.10;99.90;;;;;;5072687;28;20216;-69
2022/06/27 04:45:45;;;;;;;0.40;0.40;;;22.10;99.90;;;;;;5071890;28;20282;-68
2022/06/27 04:48:35;;;;;;;0.40;0.40;;;22.20;99.90;;;;;;5072259;28;20201;-68
2022/06/27 04:51:23;;;;;;;0.40;0.40;;;22.20;99.90;;;;;;5071366;28;20220;-67
2022/06/27 04:54:12;;;;;;;0.40;0.40;;;22.30;99.90;;;;;;5071987;28;20204;-68
2022/06/27 04:57:00;;;;;;;0.40;0.40;;;22.30;99.90;;;;;;5072136;28;20569;-68
2022/06/27 04:59:49;;;;;;;0.40;0.40;;;22.40;99.90;;;;;;5071334;28;20228;-68
2022/06/27 05:02:37;;;;;;;0.43;0.43;;;22.50;99.90;;;;;;5072270;28;20616;-67
2022/06/27 05:05:27;;;;;;;0.40;0.40;;;22.50;99.90;;;;;;5072649;28;20196;-67
2022/06/27 05:08:15;;;;;;;0.40;0.40;;;22.60;99.90;;;;;;5072151;28;20196;-67
2022/06/27 05:11:03;;;;;;;0.40;0.40;;;22.70;99.90;;;;;;5072184;28;20304;-66
2022/06/27 05:13:52;;;;;;;0.40;0.40;;;22.70;99.90;;;;;;5071999;28;20193;-67
2022/06/27 05:16:40;;;;;;;0.40;0.40;;;22.80;99.90;;;;;;5072469;28;20258;-66
2022/06/27 05:19:28;;;;;;;0.50;0.50;;;22.90;99.90;;;;;;5072181;28;20205;-66
2022/06/27 05:22:18;;;;;;;0.40;0.40;;;23.00;99.90;;;;;;5071724;28;20286;-68
2022/06/27 05:25:07;;;;;;;0.40;0.40;;;23.10;99.90;;;;;;5071969;28;20204;-67
2022/06/27 05:27:56;;;;;;;0.40;0.40;;;23.20;99.90;;;;;;5071958;28;20250;-66
2022/06/27 05:30:44;;;;;;;0.40;0.40;;;23.30;99.90;;;;;;5071731;28;20248;-67
2022/06/27 05:33:32;;;;;;;0.40;0.40;;;23.40;99.90;;;;;;5071002;28;20642;-67
2022/06/27 05:36:21;;;;;;;0.40;0.40;;;23.40;99.90;;;;;;5071739;28;20204;-68
2022/06/27 05:39:10;;;;;;;0.40;0.40;;;23.60;99.90;;;;;;5071712;28;20197;-67
2022/06/27 05:41:58;;;;;;;0.40;0.40;;;23.60;99.90;;;;;;5073407;28;20293;-68
2022/06/27 05:44:47;;;;;;;0.40;0.40;;;23.80;99.90;;;;;;5074832;28;20552;-67
2022/06/27 05:47:36;;;;;;;0.40;0.40;;;23.80;99.90;;;;;;5074874;28;20246;-68
2022/06/27 05:50:28;;;;;;;0.43;0.43;;;23.90;99.90;;;;;;5074729;28;20197;-68
2022/06/27 05:53:17;;;;;;;0.40;0.40;;;24.10;99.90;;;;;;5073624;28;20655;-68
2022/06/27 05:56:07;;;;;;;0.40;0.40;;;24.10;99.90;;;;;;5075141;28;20197;-67
2022/06/27 05:58:57;;;;;;;0.40;0.40;;;24.20;99.90;;;;;;5074657;28;20700;-68
2022/06/27 06:01:46;;;;;;;0.40;0.40;;;24.30;99.90;;;;;;5075552;28;20224;-67
2022/06/27 06:04:35;;;;;;;0.40;0.40;;;24.40;99.90;;;;;;5074554;28;20658;-68
2022/06/27 06:07:23;;;;;;;0.50;0.50;;;24.50;99.90;;;;;;5074438;28;20212;-67
2022/06/27 06:10:12;;;;;;;0.40;0.40;;;24.60;99.90;;;;;;5086042;28;20246;-67
2022/06/27 06:13:02;;;;;;;0.40;0.40;;;24.70;99.90;;;;;;5094708;28;20224;-67
2022/06/27 06:15:50;;;;;;;0.40;0.40;;;24.80;99.90;;;;;;5095528;28;20196;-67
2022/06/27 06:18:38;;;;;;;0.40;0.40;;;24.90;99.90;;;;;;5094611;28;20770;-67
2022/06/27 06:21:28;;;;;;;0.40;0.40;;;25.00;99.90;;;;;;5094679;28;20204;-67
2022/06/27 06:24:16;;;;;;;0.40;0.40;;;25.10;99.90;;;;;;5094487;28;20696;-67
2022/06/27 06:27:05;;;;;;;0.40;0.40;;;25.20;99.90;;;;;;5094790;28;20199;-68
2022/06/27 06:29:55;;;;;;;0.40;0.40;;;25.30;99.90;;;;;;5094385;28;20204;-68
2022/06/27 06:32:43;;;;;;;0.40;0.40;;;25.40;99.90;;;;;;5095227;28;20282;-67
2022/06/27 06:35:32;;;;;;;0.77;0.77;;;25.60;99.90;;;;;;5094263;28;21383;-67
2022/06/27 06:38:20;;;;;;;0.40;0.40;;;25.60;99.90;;;;;;5095359;28;20259;-67
2022/06/27 06:41:08;;;;;;;0.40;0.40;;;25.70;99.90;;;;;;5094805;28;20196;-67
2022/06/27 06:43:59;;;;;;;0.40;0.40;;;25.90;99.90;;;;;;5094247;28;20269;-67
2022/06/27 06:46:48;;;;;;;0.40;0.40;;;26.00;99.90;;;;;;5094848;28;20200;-67
2022/06/27 06:49:36;;;;;;;1.23;1.20;;;26.10;99.90;;;;;;5093973;28;20204;-67
2022/06/27 06:52:24;;;;;;;0.40;0.40;;;26.20;99.90;;;;;;5093095;28;20269;-67
2022/06/27 06:55:13;;;;;;;0.40;0.40;;;26.20;99.90;;;;;;5093529;28;20204;-68
2022/06/27 06:58:02;;;;;;;0.40;0.40;;;26.30;99.90;;;;;;5092923;28;20196;-67
2022/06/27 07:00:50;;;;;;;0.40;0.40;;;26.40;99.90;;;;;;5093661;28;20199;-67
2022/06/27 07:03:40;;;;;;;0.40;0.40;;;26.40;99.90;;;;;;5093978;28;20624;-68
2022/06/27 07:06:29;;;;;;;0.40;0.40;;;26.60;99.90;;;;;;5092302;28;20204;-68
2022/06/27 07:09:17;;;;;;;0.40;0.40;;;26.70;99.90;;;;;;5092106;28;20212;-67
2022/06/27 07:12:08;;;;;;;0.40;0.40;;;26.70;99.90;;;;;;5086384;28;20224;-67
2022/06/27 07:14:58;;;;;;;0.40;0.40;;;26.80;99.90;;;;;;5093168;28;20747;-68
2022/06/27 07:17:48;;;;;;;0.40;0.40;;;26.90;99.90;;;;;;5093058;28;20215;-67
2022/06/27 07:20:37;;;;;;;0.50;0.50;;;27.00;99.90;;;;;;5092008;28;20283;-68
2022/06/27 07:23:26;;;;;;;0.40;0.40;;;27.10;99.90;;;;;;5089449;28;20236;-66
2022/06/27 07:26:16;;;;;;;0.40;0.40;;;27.10;99.90;;;;;;5092387;28;20306;-68
2022/06/27 07:29:05;;;;;;;0.50;0.50;;;27.10;99.90;;;;;;5092040;28;20632;-66
2022/06/27 07:31:53;;;;;;;0.40;0.40;;;27.20;99.90;;;;;;5077009;28;20220;-68
2022/06/27 07:34:41;;;;;;;0.47;0.47;;;27.30;99.90;;;;;;5098576;28;20215;-66
2022/06/27 07:37:33;;;;;;;0.40;0.40;;;27.40;99.90;;;;;;5088088;28;20258;-66
2022/06/27 07:40:24;;;;;;;0.45;0.45;;;27.50;99.90;;;;;;5090840;28;20200;-66
2022/06/27 07:43:14;;;;;;;0.40;0.40;;;27.50;99.90;;;;;;5091504;28;20572;-66
2022/06/27 07:46:03;;;;;;;0.40;0.40;;;27.70;99.90;;;;;;5090552;28;20198;-66
2022/06/27 07:48:52;;;;;;;0.40;0.40;;;27.80;99.90;;;;;;5092740;28;20203;-67
2022/06/27 07:51:41;;;;;;;0.40;0.40;;;27.90;99.90;;;;;;5091509;28;20238;-67
2022/06/27 07:54:31;;;;;;;0.40;0.40;;;28.00;99.90;;;;;;5092702;28;20210;-67
2022/06/27 07:57:19;;;;;;;0.40;0.40;;;28.10;99.90;;;;;;5091121;28;20676;-67
2022/06/27 08:00:08;;;;;;;0.40;0.40;;;28.30;99.90;;;;;;5090297;28;20798;-67
2022/06/27 08:02:56;;;;;;;0.40;0.40;;;28.40;99.90;;;;;;5076062;28;20216;-67
2022/06/27 08:05:53;;;;;;;0.50;0.50;;;28.60;99.90;;;;;;5088748;28;20200;-67
2022/06/27 08:08:43;;;;;;;0.40;0.40;;;28.70;99.90;;;;;;5080147;28;20231;-67
2022/06/27 08:11:35;;;;;;;0.40;0.40;;;28.80;99.90;;;;;;5071437;28;20200;-67
2022/06/27 08:14:23;;;;;;;0.40;0.40;;;28.80;99.90;;;;;;5072570;28;20777;-67
2022/06/27 08:17:14;;;;;;;0.40;0.40;;;28.90;99.90;;;;;;5072824;28;20255;-67
2022/06/27 08:20:03;;;;;;;0.40;0.40;;;29.00;99.90;;;;;;5079059;28;20246;-67
2022/06/27 08:22:51;;;;;;;0.40;0.40;;;29.10;99.90;;;;;;5082306;28;20697;-67
2022/06/27 08:25:41;;;;;;;0.40;0.40;;;29.20;99.90;;;;;;5074781;28;20216;-67
2022/06/27 08:28:31;;;;;;;0.40;0.40;;;29.20;99.90;;;;;;5081849;28;20224;-67
2022/06/27 08:31:20;;;;;;;0.40;0.40;;;29.30;99.90;;;;;;5084422;28;20261;-67
2022/06/27 08:34:14;;;;;;;0.40;0.40;;;29.40;99.90;;;;;;5077443;28;20251;-66
2022/06/27 08:37:02;;;;;;;0.40;0.40;;;29.50;99.90;;;;;;5077352;28;20192;-66
2022/06/27 08:39:50;;;;;;;0.40;0.40;;;29.50;99.90;;;;;;5084586;28;20199;-66
2022/06/27 08:42:40;;;;;;;0.40;0.40;;;29.60;99.90;;;;;;5080257;28;20219;-67
2022/06/27 08:45:30;;;;;;;0.40;0.40;;;29.70;99.90;;;;;;5074945;28;20204;-66
2022/06/27 08:48:19;;;;;;;0.40;0.40;;;29.80;99.90;;;;;;5077184;28;20291;-66
2022/06/27 08:51:08;;;;;;;0.40;0.40;;;29.80;99.90;;;;;;5081155;28;20283;-67
2022/06/27 08:53:57;;;;;;;0.40;0.40;;;29.80;99.90;;;;;;5082420;28;20227;-67
2022/06/27 08:56:45;;;;;;;0.40;0.40;;;29.90;99.90;;;;;;5082620;28;20192;-67
2022/06/27 08:59:33;;;;;;;0.47;0.47;;;29.90;99.90;;;;;;5081220;28;20204;-66
2022/06/27 09:02:24;;;;;;;0.40;0.40;;;29.90;99.90;;;;;;5078633;28;20728;-67
2022/06/27 09:05:24;;;;;;;0.40;0.40;;;30.00;99.90;;;;;;5090819;28;20618;-67
2022/06/27 09:08:12;;;;;;;0.40;0.40;;;30.00;99.90;;;;;;5081740;28;20192;-67
2022/06/27 09:11:01;;;;;;;0.40;0.40;;;30.10;99.90;;;;;;5082062;28;20669;-67
2022/06/27 09:13:49;;;;;;;0.40;0.40;;;30.10;99.90;;;;;;5078450;28;20309;-67
2022/06/27 09:16:37;;;;;;;0.40;0.40;;;30.10;99.90;;;;;;5085758;28;20205;-67
2022/06/27 09:19:46;;;;;;;0.68;0.68;;;30.20;99.90;;;;;;5084582;28;20277;-67
2022/06/27 09:22:35;;;;;;;0.40;0.40;;;30.20;99.90;;;;;;5086599;28;20226;-67
2022/06/27 09:25:26;;;;;;;0.40;0.40;;;30.30;99.90;;;;;;5080824;28;20227;-67
2022/06/27 09:28:14;;;;;;;0.40;0.40;;;30.40;99.90;;;;;;5085660;28;20216;-67
2022/06/27 09:31:03;;;;;;;0.40;0.40;;;30.50;99.90;;;;;;5087285;28;20676;-67
2022/06/27 09:34:01;;;;;;;0.40;0.40;;;30.50;99.60;;;;;;5074588;28;20213;-67
2022/06/27 09:36:54;;;;;;;0.50;0.50;;;30.60;99.00;;;;;;5074596;28;20211;-66
2022/06/27 09:39:42;;;;;;;0.40;0.40;;;30.70;98.90;;;;;;5074704;28;20196;-67
2022/06/27 09:42:31;;;;;;;0.40;0.40;;;30.70;99.00;;;;;;5081239;28;20252;-68
2022/06/27 09:45:23;;;;;;;0.40;0.40;;;30.70;99.00;;;;;;5085125;28;20204;-67
2022/06/27 09:48:11;;;;;;;0.40;0.40;;;30.80;98.60;;;;;;5087551;28;20258;-67
2022/06/27 09:51:01;;;;;;;0.50;0.50;;;30.80;98.90;;;;;;5077717;28;20661;-68
2022/06/27 09:53:51;;;;;;;0.40;0.40;;;30.90;98.30;;;;;;5078449;28;20220;-68
2022/06/27 09:56:41;;;;;;;0.40;0.40;;;31.00;98.00;;;;;;5078387;28;20791;-69
2022/06/27 09:59:29;;;;;;;0.40;0.40;;;31.00;98.20;;;;;;5083542;28;20203;-69
2022/06/27 10:02:22;;;;;;;0.40;0.40;;;31.10;97.90;;;;;;5085270;28;20863;-69
2022/06/27 10:05:11;;;;;;;0.40;0.40;;;31.20;97.80;;;;;;5078483;28;20208;-69
2022/06/27 10:08:03;;;;;;;0.60;0.60;;;31.40;96.80;;;;;;5079962;28;20205;-68
2022/06/27 10:11:07;;;;;;;0.40;0.40;;;31.30;95.70;;;;;;5073195;28;20590;-69
2022/06/27 10:14:13;;;;;;;0.40;0.40;;;31.40;95.80;;;;;;5074903;28;20276;-69
2022/06/27 10:17:01;;;;;;;0.40;0.40;;;31.40;95.40;;;;;;5087400;28;20203;-69
2022/06/27 10:20:06;;;;;;;0.40;0.40;;;31.50;95.50;;;;;;5091740;28;20287;-69
2022/06/27 10:23:26;;;;;;;0.40;0.40;;;31.50;94.50;;;;;;5093512;28;20251;-70
2022/06/27 10:26:39;;;;;;;0.40;0.40;;;31.60;93.60;;;;;;5087212;28;20670;-69
2022/06/27 10:29:37;;;;;;;1.67;1.10;;;31.70;92.60;;;;;;5085267;28;20295;-68
2022/06/27 10:32:47;;;;;;;2.28;2.15;;;31.80;92.20;;;;;;5067801;28;20224;-68
2022/06/27 10:36:02;;;;;;;0.50;0.50;;;31.90;91.20;;;;;;5072096;28;20200;-68
2022/06/27 10:38:55;;;;;;;0.40;0.40;;;32.00;90.60;;;;;;5073238;28;20212;-68
2022/06/27 10:41:45;;;;;;;0.40;0.40;;;32.00;90.30;;;;;;5071938;28;20716;-68
2022/06/27 10:44:33;;;;;;;0.40;0.40;;;32.10;89.40;;;;;;5073038;28;20345;-68
2022/06/27 10:47:33;;;;;;;0.40;0.40;;;32.20;88.80;;;;;;5072643;28;20635;-69
2022/06/27 10:50:23;;;;;;;1.10;1.10;;;32.40;89.20;;;;;;5079921;28;20293;-69
2022/06/27 10:53:23;;;;;;;0.45;0.45;;;32.50;88.40;;;;;;5082867;28;20220;-69
2022/06/27 10:56:31;;;;;;;0.40;0.40;;;32.60;88.30;;;;;;5081483;28;20557;-69
2022/06/27 10:59:59;;;;;;;0.60;0.60;;;32.90;87.30;;;;;;5075257;28;20197;-69
2022/06/27 11:02:53;;;;;;;0.40;0.40;;;33.10;86.40;;;;;;5081397;28;20222;-69
2022/06/27 11:06:00;;;;;;;0.60;0.60;;;33.20;85.50;;;;;;5083967;28;20211;-69
2022/06/27 11:08:50;;;;;;;0.50;0.50;;;33.30;85.40;;;;;;5082090;28;20207;-68
2022/06/27 11:11:43;;;;;;;0.40;0.40;;;33.50;85.40;;;;;;5082040;28;20234;-69
2022/06/27 11:14:42;;;;;;;0.40;0.40;;;33.70;83.90;;;;;;5088846;28;20243;-68
2022/06/27 11:17:33;;;;;;;0.40;0.40;;;33.90;83.60;;;;;;5090104;28;20289;-69
2022/06/27 11:20:25;;;;;;;0.50;0.50;;;34.20;82.70;;;;;;5080593;28;20200;-68
2022/06/27 11:23:29;;;;;;;0.73;0.73;;;34.40;79.50;;;;;;5079858;28;20255;-68
2022/06/27 11:26:18;;;;;;;0.47;0.47;;;34.60;79.30;;;;;;5083207;28;20741;-68
2022/06/27 11:32:23;;;;;;;0.40;0.40;;;35.10;77.50;;;;;;5091323;28;20630;-68
2022/06/27 11:35:12;;;;;;;0.40;0.40;;;35.40;74.00;;;;;;5091363;28;20722;-70
2022/06/27 11:38:05;;;;;;;0.93;0.85;;;35.50;72.50;;;;;;5090693;28;20200;-67
2022/06/27 11:41:04;;;;;;;0.40;0.40;;;35.60;72.10;;;;;;5087899;28;20236;-68
2022/06/27 11:43:56;;;;;;;0.40;0.40;;;35.60;72.30;;;;;;5090349;28;20195;-68
2022/06/27 11:46:45;;;;;;;0.40;0.40;;;35.80;72.20;;;;;;5089612;28;20239;-69
2022/06/27 11:49:36;;;;;;;0.40;0.40;;;35.90;71.90;;;;;;5081819;28;20307;-68
2022/06/27 11:52:38;;;;;;;0.40;0.40;;;35.90;70.50;;;;;;5072623;28;20230;-68
2022/06/27 11:55:28;;;;;;;0.73;0.73;;;35.60;69.50;;;;;;5074791;28;20581;-68
2022/06/27 11:58:17;;;;;;;0.40;0.40;;;35.10;70.30;;;;;;5089095;28;20261;-68
2022/06/27 12:01:11;;;;;;;0.40;0.40;;;34.90;70.20;;;;;;5085431;28;20283;-68
2022/06/27 12:04:13;;;;;;;0.40;0.40;;;34.80;71.00;;;;;;5092112;28;20241;-68
2022/06/27 12:07:08;;;;;;;0.50;0.50;;;34.90;69.60;;;;;;5084550;28;20227;-68
2022/06/27 12:09:56;;;;;;;0.40;0.40;;;34.90;69.30;;;;;;5086678;28;20200;-67
2022/06/27 12:12:46;;;;;;;0.40;0.40;;;35.00;68.20;;;;;;5073696;28;20262;-68
2022/06/27 12:15:35;;;;;;;0.50;0.50;;;35.20;69.20;;;;;;5078784;28;20224;-68
2022/06/27 12:18:33;;;;;;;0.50;0.50;;;35.60;67.30;;;;;;5090095;28;20672;-68
2022/06/27 12:21:22;;;;;;;0.40;0.40;;;36.00;67.50;;;;;;5079147;28;20203;-70
2022/06/27 12:24:11;;;;;;;0.40;0.40;;;36.30;66.80;;;;;;5086993;28;20196;-70
2022/06/27 12:26:59;;;;;;;0.40;0.40;;;36.30;65.60;;;;;;5085789;23;20317;-68
2022/06/27 12:29:48;;;;;;;0.40;0.40;;;36.30;64.60;;;;;;5072273;28;20189;-71
2022/06/27 12:32:36;;;;;;;0.40;0.40;;;36.60;64.70;;;;;;5073244;28;20276;-68
2022/06/27 12:35:25;;;;;;;0.40;0.40;;;37.10;62.30;;;;;;5070581;28;20221;-69
2022/06/27 12:38:13;;;;;;;0.70;0.70;;;37.10;62.90;;;;;;5065194;28;20208;-72
2022/06/27 12:41:12;;;;;;;0.40;0.40;;;37.60;63.10;;;;;;5061722;28;20209;-71
2022/06/27 12:44:00;;;;;;;0.40;0.40;;;37.80;61.90;;;;;;5063731;28;20664;-69
2022/06/27 12:46:50;;;;;;;0.40;0.40;;;39.20;61.30;;;;;;5059252;28;20213;-71
2022/06/27 12:49:44;;;;;;;0.40;0.40;;;41.40;57.00;;;;;;5071210;28;20292;-69
2022/06/27 12:52:32;;;;;;;0.40;0.40;;;42.70;54.10;;;;;;5071049;28;20695;-70
2022/06/27 12:55:20;;;;;;;0.47;0.47;;;43.20;52.20;;;;;;5070419;28;20294;-71
2022/06/27 12:58:09;;;;;;;0.40;0.40;;;42.60;51.10;;;;;;5065366;28;20202;-71
2022/06/27 13:00:57;;;;;;;0.50;0.50;;;43.60;50.70;;;;;;5069112;28;20292;-70
2022/06/27 13:03:46;;;;;;;0.50;0.50;;;45.50;48.60;;;;;;5055953;28;20385;-70
2022/06/27 13:06:35;;;;;;;0.60;0.60;;;46.70;45.50;;;;;;5065368;28;20224;-71
2022/06/27 13:09:23;;;;;;;0.50;0.50;;;47.80;44.50;;;;;;5071052;28;20258;-69
2022/06/27 13:12:12;;;;;;;1.13;1.13;;;46.60;42.90;;;;;;5069562;28;20209;-69
2022/06/27 13:15:00;;;;;;;0.50;0.50;;;45.50;44.80;;;;;;5057773;28;20232;-71
2022/06/27 13:17:48;;;;;;;0.50;0.50;;;45.40;44.30;;;;;;5058309;28;20254;-70
2022/06/27 13:20:38;;;;;;;0.50;0.50;;;44.10;45.10;;;;;;5050873;28;20205;-69
2022/06/27 13:23:32;;;;;;;0.40;0.40;;;42.50;46.10;;;;;;5064164;28;20192;-70
2022/06/27 13:26:40;;;;;;;0.93;0.93;;;41.20;46.90;;;;;;5070860;28;20260;-71
2022/06/27 13:29:28;;;;;;;0.50;0.50;;;43.20;46.40;;;;;;5069282;28;20923;-75
2022/06/27 13:32:17;;;;;;;0.50;0.50;;;46.40;43.00;;;;;;5058744;28;20680;-71
2022/06/27 13:35:06;;;;;;;0.50;0.50;;;46.90;41.40;;;;;;5068300;28;20601;-70
2022/06/27 13:38:00;;;;;;;0.50;0.50;;;45.60;41.90;;;;;;5070208;28;20246;-73
2022/06/27 13:40:51;;;;;;;0.50;0.50;;;43.90;43.30;;;;;;5065572;28;20224;-70
2022/06/27 13:43:39;;;;;;;0.50;0.50;;;42.20;44.80;;;;;;5060336;28;20711;-69
2022/06/27 13:46:27;;;;;;;0.50;0.50;;;43.20;44.50;;;;;;5062150;28;20205;-70
2022/06/27 13:49:21;;;;;;;0.50;0.50;;;46.30;42.30;;;;;;5063266;28;20204;-70
2022/06/27 13:52:09;;;;;;;0.50;0.50;;;47.70;39.60;;;;;;5057808;28;20194;-71
2022/06/27 13:55:01;;;;;;;0.50;0.50;;;47.10;39.80;;;;;;5066486;28;20220;-70
2022/06/27 13:57:51;;;;;;;0.60;0.60;;;47.40;39.70;;;;;;5057799;28;20216;-71
2022/06/27 14:00:59;;;;;;;0.60;0.60;;;48.90;38.50;;;;;;5066215;28;20901;-72
2022/06/27 14:03:47;;;;;;;0.60;0.60;;;48.30;38.10;;;;;;5065850;28;20519;-72
2022/06/27 14:09:41;;;;;;;1.98;1.98;;;50.30;35.90;;;;;;5065797;28;20211;-74
2022/06/27 14:12:31;;;;;;;0.70;0.70;;;51.20;34.90;;;;;;5063910;28;20286;-73
2022/06/27 14:15:20;;;;;;;0.60;0.60;;;50.20;34.60;;;;;;5070184;28;20274;-71
2022/06/27 14:18:09;;;;;;;0.60;0.60;;;48.50;35.60;;;;;;5073803;28;20267;-71
2022/06/27 14:20:57;;;;;;;0.60;0.60;;;47.40;36.80;;;;;;5064899;28;20239;-71
2022/06/27 14:23:45;;;;;;;0.50;0.50;;;46.20;37.80;;;;;;5068409;28;20199;-71
2022/06/27 14:26:35;;;;;;;0.50;0.50;;;45.80;37.50;;;;;;5072968;28;20686;-72
2022/06/27 14:29:25;;;;;;;0.50;0.50;;;45.00;38.40;;;;;;5072568;28;20274;-71
2022/06/27 14:32:13;;;;;;;0.60;0.60;;;44.80;38.70;;;;;;5072285;28;20289;-71
2022/06/27 14:35:01;;;;;;;0.50;0.50;;;45.30;38.50;;;;;;5063816;28;20627;-71
2022/06/27 14:37:50;;;;;;;0.50;0.50;;;45.50;38.80;;;;;;5068023;28;20248;-72
2022/06/27 14:40:38;;;;;;;0.50;0.50;;;45.40;38.70;;;;;;5058949;28;20194;-71
2022/06/27 14:43:26;;;;;;;0.50;0.50;;;45.10;38.30;;;;;;5071900;28;20203;-72
2022/06/27 14:46:16;;;;;;;0.50;0.50;;;44.80;39.70;;;;;;5072816;28;20295;-72
2022/06/27 14:49:05;;;;;;;0.50;0.50;;;44.50;38.90;;;;;;5070923;28;20207;-71
2022/06/27 14:51:53;;;;;;;0.50;0.50;;;44.80;39.70;;;;;;5073254;28;20258;-72
2022/06/27 14:54:41;;;;;;;0.70;0.68;;;44.80;38.80;;;;;;5072751;28;20684;-71
2022/06/27 14:57:29;;;;;;;0.50;0.50;;;44.50;38.50;;;;;;5062381;28;20439;-72
2022/06/27 15:00:18;;;;;;;0.70;0.70;;;44.60;38.90;;;;;;5068742;28;20326;-71